ADDS METAR Data INFO
IDs: Format: Raw Decoded Include TAF

Data at: 0847 UTC 22 Feb 2018

KMXO 220835Z AUTO 05006G12KT 10SM FEW085 OVC110 M04/M09 A3055 RMK AO2
KMXO 220815Z AUTO 07011KT 10SM BKN085 OVC110 M04/M10 A3055 RMK AO2
KMXO 220755Z AUTO 07008KT 10SM BKN090 OVC120 M04/M09 A3056 RMK AO2
KMXO 220735Z AUTO 07006G12KT 10SM BKN100 OVC120 M04/M09 A3056 RMK AO2
KMXO 220715Z AUTO 06008KT 10SM OVC100 M04/M10 A3056 RMK AO2
KMXO 220655Z AUTO 07009KT 10SM FEW075 BKN095 OVC110 M04/M10 A3056 RMK AO2
KMXO 220635Z AUTO 06007KT 10SM BKN095 OVC110 M04/M09 A3056 RMK AO2
KMXO 220615Z AUTO 05006KT 10SM OVC110 M04/M09 A3056 RMK AO2
KMXO 220555Z AUTO 05006KT 10SM OVC110 M04/M09 A3057 RMK AO2
KMXO 220535Z AUTO 04006KT 10SM OVC110 M04/M09 A3058 RMK AO2
KMXO 220515Z AUTO 04006KT 10SM OVC110 M04/M09 A3058 RMK AO2
KMXO 220455Z AUTO 04005KT 10SM OVC110 M04/M09 A3059 RMK AO2
KMXO 220435Z AUTO 02004KT 10SM BKN110 M04/M09 A3060 RMK AO2
KMXO 220415Z AUTO 03004KT 10SM FEW120 M04/M09 A3060 RMK AO2
KMXO 220355Z AUTO 03004KT 10SM CLR M05/M09 A3060 RMK AO2
KMXO 220035Z AUTO 03004KT 10SM CLR M04/M10 A3064 RMK AO2
KMXO 220015Z AUTO 02005KT 10SM CLR M04/M10 A3064 RMK AO2
KMXO 212355Z AUTO 02006KT 6SM HZ CLR M04/M10 A3063 RMK AO2
KMXO 212335Z AUTO 01005KT 10SM CLR M04/M10 A3063 RMK AO2
KMXO 212315Z AUTO 02007KT 7SM CLR M03/M11 A3061 RMK AO2
KMXO 212255Z AUTO 03008KT 7SM CLR M03/M11 A3061 RMK AO2
KMXO 212235Z AUTO 02008KT 10SM CLR M03/M11 A3061 RMK AO2
KMXO 212215Z AUTO 02006KT 9SM CLR M03/M11 A3061 RMK AO2
KMXO 212155Z AUTO 36007KT 330V030 10SM CLR M03/M11 A3060 RMK AO2
KMXO 212135Z AUTO 01006KT 10SM CLR M03/M10 A3060 RMK AO2
KMXO 212115Z AUTO 35007KT 10SM CLR M03/M10 A3060 RMK AO2
KMXO 212055Z AUTO 35008KT 10SM CLR M04/M10 A3060 RMK AO2
KMXO 212035Z AUTO 34008KT 10SM CLR M04/M10 A3061 RMK AO2
KMXO 212015Z AUTO 33009KT 10SM CLR M04/M11 A3061 RMK AO2
KMXO 211955Z AUTO 35008KT 10SM CLR M04/M11 A3062 RMK AO2
KMXO 211935Z AUTO 35007KT 10SM CLR M05/M11 A3062 RMK AO2
KMXO 211915Z AUTO 35010KT 10SM CLR M05/M11 A3062 RMK AO2
KMXO 211855Z AUTO 35009KT 10SM CLR M05/M11 A3062 RMK AO2
KMXO 211835Z AUTO 36007KT 10SM CLR M05/M12 A3062 RMK AO2
KMXO 211815Z AUTO 35010KT 10SM CLR M05/M12 A3062 RMK AO2
KMXO 211755Z AUTO 35007KT 10SM CLR M06/M11 A3062 RMK AO2
KMXO 211735Z AUTO 35008G14KT 10SM CLR M06/M12 A3061 RMK AO2
KMXO 211715Z AUTO 35010KT 10SM CLR M06/M12 A3061 RMK AO2
KMXO 211655Z AUTO 34010KT 10SM CLR M07/M12 A3061 RMK AO2
KMXO 211635Z AUTO 35009KT 10SM CLR M07/M13 A3061 RMK AO2
KMXO 211615Z AUTO 36009KT 10SM CLR M07/M13 A3062 RMK AO2
KMXO 211555Z AUTO 35008KT 10SM CLR M08/M13 A3062 RMK AO2
KMXO 211535Z AUTO 33009KT 10SM CLR M08/M14 A3061 RMK AO2
KMXO 211515Z AUTO 34009KT 10SM CLR M09/M14 A3060 RMK AO2
KMXO 211455Z AUTO 35011KT 10SM CLR M08/M13 A3059 RMK AO2
KMXO 211435Z AUTO 35010KT 10SM CLR M09/M13 A3059 RMK AO2
KMXO 211415Z AUTO 33010KT CLR M09/M13 A3058 RMK AO2
KMXO 211355Z AUTO 35012KT 10SM CLR M09/M13 A3057 RMK AO2
KMXO 211335Z AUTO 34011KT 10SM CLR M09/M13 A3055 RMK AO2
KMXO 211315Z AUTO 33012G17KT 10SM CLR M09/M13 A3053 RMK AO2
KMXO 211255Z AUTO 33011KT 10SM CLR M09/M13 A3053 RMK AO2
KMXO 210755Z AUTO 33013KT 10SM FEW110 M07/M11 A3038 RMK AO2
KMXO 210735Z AUTO 34011KT 10SM BKN110 M07/M11 A3036 RMK AO2
KMXO 210715Z AUTO 33012KT 10SM FEW110 M07/M11 A3036 RMK AO2
KMXO 210655Z AUTO 31011G17KT 10SM BKN110 M07/M10 A3033 RMK AO2
KMXO 210635Z AUTO 32010KT 10SM FEW019 OVC110 M07/M10 A3033 RMK AO2
KMXO 210615Z AUTO 32014KT 10SM OVC110 M06/M10 A3031 RMK AO2
KMXO 210555Z AUTO 32010G15KT 10SM BKN110 M06/M10 A3030 RMK AO2